Time;durP1;ratioP1;P1;durP2;ratioP2;P2;SDS_P1;SDS_P2;PMS_P1;PMS_P2;Temp;Humidity;BMP_temperature;BMP_pressure;BME280_temperature;BME280_humidity;BME280_pressure;Samples;Min_cycle;Max_cycle;Signal;HPM_P1;HPM_P2
2024/01/07 00:02:13;;;;;;;117.77;49.97;;;;;;;-141.97;100.00;46208.50;5108939;28;20199;-88
2024/01/07 00:04:40;;;;;;;100.27;43.53;;;;;;;-141.97;100.00;46214.25;5108444;28;20195;-87
2024/01/07 00:07:06;;;;;;;123.77;50.57;;;;;;;-141.97;100.00;46031.75;5091617;28;20181;-87
2024/01/07 00:09:31;;;;;;;127.83;54.43;;;;;;;-141.97;100.00;45931.84;5108661;28;20418;-87
2024/01/07 00:11:57;;;;;;;120.63;52.33;;;;;;;-141.97;100.00;46145.09;5090593;28;20245;-86
2024/01/07 00:14:22;;;;;;;130.10;56.93;;;;;;;-141.97;100.00;45939.53;5092369;28;20179;-86
2024/01/07 00:16:48;;;;;;;239.20;76.70;;;;;;;-141.97;100.00;46077.84;5092547;28;20164;-87
2024/01/07 00:19:13;;;;;;;141.47;59.27;;;;;;;-141.97;100.00;46181.59;5092613;28;20269;-87
2024/01/07 00:21:39;;;;;;;133.47;56.40;;;;;;;-141.97;100.00;46406.41;5091372;28;20188;-88
2024/01/07 00:24:04;;;;;;;122.37;49.20;;;;;;;-141.97;100.00;45987.56;5092231;28;20606;-88
2024/01/07 00:26:30;;;;;;;89.80;39.43;;;;;;;-141.97;100.00;46487.09;5092932;28;20200;-88
2024/01/07 00:28:55;;;;;;;97.20;43.07;;;;;;;-141.97;100.00;46635.06;5090926;28;20297;-87
2024/01/07 00:31:20;;;;;;;105.53;47.20;;;;;;;-141.97;100.00;46231.56;5091365;28;20172;-88
2024/01/07 00:33:46;;;;;;;111.90;49.70;;;;;;;-141.97;100.00;46567.81;5091917;28;20229;-87
2024/01/07 00:36:11;;;;;;;108.67;47.80;;;;;;;-141.97;100.00;45976.03;5108012;28;20176;-87
2024/01/07 00:38:37;;;;;;;108.70;49.27;;;;;;;-141.97;100.00;46037.50;5092063;28;20164;-90
2024/01/07 00:41:02;;;;;;;101.70;47.07;;;;;;;-141.97;100.00;46198.91;5107198;28;20172;-86
2024/01/07 00:43:27;;;;;;;104.87;47.27;;;;;;;-141.97;100.00;46448.66;5091700;28;20180;-87
2024/01/07 00:45:53;;;;;;;101.87;47.00;;;;;;;-141.97;100.00;46477.50;5091518;28;20935;-88
2024/01/07 00:48:18;;;;;;;92.20;40.13;;;;;;;-141.97;100.00;45989.47;5090714;28;20164;-88
2024/01/07 00:50:44;;;;;;;90.90;44.50;;;;;;;-141.97;100.00;46462.13;5091924;28;20174;-86
2024/01/07 00:53:09;;;;;;;100.57;45.43;;;;;;;-141.97;100.00;46538.97;5091505;28;20191;-88
2024/01/07 00:55:37;;;;;;;88.70;41.33;;;;;;;-141.97;100.00;46062.47;5090570;28;20575;-89
2024/01/07 00:58:03;;;;;;;98.87;45.73;;;;;;;-141.97;100.00;46400.63;5091814;28;20157;-87
2024/01/07 01:00:29;;;;;;;100.50;46.10;;;;;;;-141.97;100.00;46456.34;5090181;28;20463;-87
2024/01/07 01:02:55;;;;;;;95.77;44.27;;;;;;;-141.97;100.00;46212.34;5091252;28;20206;-87
2024/01/07 01:05:20;;;;;;;128.67;55.57;;;;;;;-141.97;100.00;46562.03;5092646;28;20813;-86
2024/01/07 01:07:45;;;;;;;109.57;49.67;;;;;;;-141.97;100.00;46045.19;5099199;28;20186;-87
2024/01/07 01:10:11;;;;;;;97.67;45.17;;;;;;;-141.97;100.00;46187.38;5092915;28;20168;-88
2024/01/07 01:12:36;;;;;;;106.73;47.70;;;;;;;-141.97;100.00;46104.75;5091660;28;20300;-87
2024/01/07 01:15:02;;;;;;;107.73;48.07;;;;;;;-141.97;100.00;46181.59;5092034;28;20262;-86
2024/01/07 01:17:27;;;;;;;96.03;43.43;;;;;;;-141.97;100.00;46231.56;5091585;28;20168;-87
2024/01/07 01:19:53;;;;;;;90.83;43.83;;;;;;;-141.97;100.00;46108.59;5091634;28;20152;-87
2024/01/07 01:22:18;;;;;;;103.43;47.33;;;;;;;-141.97;100.00;46195.06;5090279;28;20171;-86
2024/01/07 01:24:45;;;;;;;165.10;70.37;;;;;;;-141.97;100.00;46089.38;5090036;28;20688;-87
2024/01/07 01:27:12;;;;;;;108.47;48.83;;;;;;;-141.97;100.00;46025.97;5090027;28;20172;-87
2024/01/07 01:29:37;;;;;;;98.07;45.23;;;;;;;-141.97;100.00;46037.50;5091666;28;20164;-88
2024/01/07 01:32:03;;;;;;;100.70;46.53;;;;;;;-141.97;100.00;45993.31;5091550;28;20178;-87
2024/01/07 01:34:28;;;;;;;115.43;50.50;;;;;;;-141.97;100.00;46139.34;5091462;28;20577;-87
2024/01/07 01:36:53;;;;;;;111.53;51.80;;;;;;;-141.97;100.00;46031.75;5089858;28;20225;-87
2024/01/07 01:39:19;;;;;;;106.47;48.40;;;;;;;-141.97;100.00;46085.53;5091255;28;20273;-86
2024/01/07 01:41:44;;;;;;;110.67;50.93;;;;;;;-141.97;100.00;46131.66;5103773;28;20164;-85
2024/01/07 01:44:10;;;;;;;107.30;49.43;;;;;;;-141.97;100.00;46104.75;5106521;28;20679;-86
2024/01/07 01:46:35;;;;;;;111.33;51.20;;;;;;;-141.97;100.00;45966.44;5103890;28;20694;-86
2024/01/07 01:49:01;;;;;;;98.23;47.33;;;;;;;-141.97;100.00;45897.25;5091348;28;20164;-86
2024/01/07 01:51:27;;;;;;;91.93;41.73;;;;;;;-141.97;100.00;46016.38;5091301;28;20550;-86
2024/01/07 01:53:57;;;;;;;92.00;42.53;;;;;;;-141.97;100.00;46367.97;5090788;28;20183;-90
2024/01/07 01:56:26;;;;;;;98.37;42.93;;;;;;;-141.97;100.00;46064.41;5089378;28;20176;-91
2024/01/07 01:59:30;;;;;;;95.17;44.20;;;;;;;-141.97;100.00;45904.94;5088197;28;20665;-89
2024/01/07 02:02:00;;;;;;;102.23;43.87;;;;;;;-141.97;100.00;45958.75;5046281;28;20473;-89
2024/01/07 02:04:26;;;;;;;102.43;45.20;;;;;;;-141.97;100.00;46033.66;5029671;28;20185;-89
2024/01/07 02:06:58;;;;;;;92.17;41.90;;;;;;;-141.97;100.00;46074.00;5030108;28;20537;-91
2024/01/07 02:09:39;;;;;;;87.60;41.27;;;;;;;-141.97;100.00;46135.50;5030300;28;20424;-90
2024/01/07 02:12:28;;;;;;;91.07;42.73;;;;;;;-141.97;100.00;46537.06;5029161;28;20643;-89
2024/01/07 02:15:09;;;;;;;93.07;42.13;;;;;;;-141.97;100.00;45851.16;5028963;28;20326;-88
2024/01/07 02:17:44;;;;;;;104.50;44.83;;;;;;;-141.97;100.00;45904.94;5026586;28;20208;-88
2024/01/07 02:20:35;;;;;;;88.73;41.97;;;;;;;-141.97;100.00;45943.38;5047277;28;20188;-89
2024/01/07 02:23:25;;;;;;;88.80;40.67;;;;;;;-141.97;100.00;46160.47;5046924;28;20649;-90
2024/01/07 02:25:51;;;;;;;86.73;40.40;;;;;;;-141.97;100.00;46089.38;5046400;28;20709;-90
2024/01/07 02:28:16;;;;;;;90.63;40.27;;;;;;;-141.97;100.00;46150.84;5029912;28;20209;-88
2024/01/07 02:30:42;;;;;;;83.47;39.70;;;;;;;-141.97;100.00;46158.53;5047579;28;20189;-90
2024/01/07 02:33:11;;;;;;;86.93;37.97;;;;;;;-141.97;100.00;46083.63;5030999;28;20337;-90
2024/01/07 02:35:36;;;;;;;80.77;38.80;;;;;;;-141.97;100.00;45920.31;5031167;28;20279;-91
2024/01/07 02:38:01;;;;;;;79.27;39.00;;;;;;;-141.97;100.00;46152.78;5030812;28;20366;-88
2024/01/07 02:40:27;;;;;;;85.77;38.90;;;;;;;-141.97;100.00;46560.13;5047195;28;20276;-90
2024/01/07 02:42:52;;;;;;;83.53;38.57;;;;;;;-141.97;100.00;45958.75;5066562;28;20183;-90
2024/01/07 02:45:18;;;;;;;74.00;37.43;;;;;;;-141.97;100.00;45904.94;5070390;28;20244;-91
2024/01/07 02:47:44;;;;;;;75.57;37.33;;;;;;;-141.97;100.00;46147.03;5070880;28;20176;-90
2024/01/07 02:50:09;;;;;;;78.97;37.00;;;;;;;-141.97;100.00;45947.22;5071015;28;20198;-90
2024/01/07 02:52:35;;;;;;;78.03;36.63;;;;;;;-141.97;100.00;46333.38;5088460;28;20182;-89
2024/01/07 02:55:01;;;;;;;71.67;34.80;;;;;;;-141.97;100.00;46027.91;5089975;28;20191;-89
2024/01/07 02:57:27;;;;;;;63.93;32.00;;;;;;;-141.97;100.00;46172.00;5088195;28;20601;-88
2024/01/07 02:59:53;;;;;;;66.47;31.17;;;;;;;-141.97;100.00;45962.59;5088404;28;20182;-90
2024/01/07 03:02:21;;;;;;;61.10;30.23;;;;;;;-141.97;100.00;46154.69;5088214;28;20168;-89
2024/01/07 03:04:47;;;;;;;65.17;32.27;;;;;;;-141.97;100.00;46150.84;5091031;28;20315;-89
2024/01/07 03:07:13;;;;;;;59.73;29.40;;;;;;;-141.97;100.00;45897.25;5090657;28;20606;-90
2024/01/07 03:09:38;;;;;;;65.30;30.73;;;;;;;-141.97;100.00;46083.63;5088080;28;20168;-89
2024/01/07 03:12:04;;;;;;;71.63;31.37;;;;;;;-141.97;100.00;46435.22;5087809;28;20274;-90
2024/01/07 03:14:29;;;;;;;62.90;29.57;;;;;;;-141.97;100.00;45952.97;5088108;28;20567;-89
2024/01/07 03:16:55;;;;;;;81.73;37.43;;;;;;;-141.97;100.00;46377.56;5087790;28;20188;-90
2024/01/07 03:19:21;;;;;;;97.63;43.40;;;;;;;-141.97;100.00;46047.13;5089704;28;20172;-88
2024/01/07 03:21:48;;;;;;;89.53;39.77;;;;;;;-141.97;100.00;46150.84;5088366;28;20274;-90
2024/01/07 03:24:13;;;;;;;88.10;40.77;;;;;;;-141.97;100.00;46419.84;5088523;28;20172;-90
2024/01/07 03:26:39;;;;;;;87.70;39.63;;;;;;;-141.97;100.00;45885.72;5100310;28;20203;-88
2024/01/07 03:29:04;;;;;;;95.93;41.73;;;;;;;-141.97;100.00;46172.00;5116612;28;20184;-85
2024/01/07 03:31:30;;;;;;;138.43;60.00;;;;;;;-141.97;100.00;46193.13;5103429;28;20270;-87
2024/01/07 03:33:55;;;;;;;101.13;45.10;;;;;;;-141.97;100.00;46123.97;5096641;28;20176;-87
2024/01/07 03:36:24;;;;;;;102.27;47.10;;;;;;;-141.97;100.00;46642.75;5097841;28;20227;-88
2024/01/07 03:39:06;;;;;;;110.30;46.20;;;;;;;-141.97;100.00;46008.69;5094814;28;20204;-87
2024/01/07 03:41:35;;;;;;;93.03;41.13;;;;;;;-141.97;100.00;46122.03;5093896;28;20255;-87
2024/01/07 03:44:03;;;;;;;105.27;45.03;;;;;;;-141.97;100.00;46515.91;5091427;28;20219;-88
2024/01/07 03:46:28;;;;;;;102.90;47.33;;;;;;;-141.97;100.00;46535.13;5093015;28;20196;-89
2024/01/07 03:48:56;;;;;;;102.90;44.40;;;;;;;-141.97;100.00;45995.25;5093331;28;20168;-89
2024/01/07 03:51:21;;;;;;;109.93;47.63;;;;;;;-141.97;100.00;46075.94;5093683;28;20164;-89
2024/01/07 03:53:47;;;;;;;120.60;52.93;;;;;;;-141.97;100.00;46525.53;5093248;28;20248;-88
2024/01/07 03:56:12;;;;;;;166.30;72.43;;;;;;;-141.97;100.00;46216.19;5093385;28;20168;-88
2024/01/07 03:58:37;;;;;;;90.67;37.97;;;;;;;-141.97;100.00;46585.09;5091032;28;20175;-85
2024/01/07 04:01:03;;;;;;;163.63;60.33;;;;;;;-141.97;100.00;45931.84;5091511;28;20164;-86
2024/01/07 04:03:29;;;;;;;183.83;64.53;;;;;;;-141.97;100.00;46108.59;5093129;28;20620;-86
2024/01/07 04:05:54;;;;;;;157.77;59.47;;;;;;;-141.97;100.00;46172.00;5091237;28;20668;-87
2024/01/07 04:08:19;;;;;;;159.03;57.67;;;;;;;-141.97;100.00;46610.06;5091877;28;20187;-86
2024/01/07 04:10:45;;;;;;;129.17;49.70;;;;;;;-141.97;100.00;46091.31;5092598;28;20663;-86
2024/01/07 04:13:10;;;;;;;104.73;46.20;;;;;;;-141.97;100.00;46531.28;5091731;28;20175;-84
2024/01/07 04:15:36;;;;;;;116.60;49.60;;;;;;;-141.97;100.00;46091.31;5092440;28;20531;-86
2024/01/07 04:18:03;;;;;;;114.20;51.03;;;;;;;-141.97;100.00;46195.06;5092341;28;20187;-87
2024/01/07 04:20:29;;;;;;;115.90;50.43;;;;;;;-141.97;100.00;46173.91;5092418;28;20588;-86
2024/01/07 04:22:55;;;;;;;107.77;44.40;;;;;;;-141.97;100.00;46010.63;5092613;28;20198;-85
2024/01/07 04:25:20;;;;;;;104.77;45.00;;;;;;;-141.97;100.00;46056.72;5091948;28;20212;-85
2024/01/07 04:27:45;;;;;;;98.80;44.77;;;;;;;-141.97;100.00;46185.44;5090785;28;20215;-89
2024/01/07 04:30:11;;;;;;;92.80;40.80;;;;;;;-141.97;100.00;46070.16;5090935;28;20218;-86
2024/01/07 04:32:36;;;;;;;92.07;40.93;;;;;;;-141.97;100.00;46024.06;5092358;28;20378;-87
2024/01/07 04:35:02;;;;;;;89.63;40.77;;;;;;;-141.97;100.00;46039.44;5092070;28;20172;-86
2024/01/07 04:37:27;;;;;;;96.87;43.53;;;;;;;-141.97;100.00;45958.75;5092286;28;20244;-85
2024/01/07 04:39:53;;;;;;;97.10;44.37;;;;;;;-141.97;100.00;46312.25;5090822;28;20182;-89
2024/01/07 04:42:18;;;;;;;268.87;92.47;;;;;;;-141.97;100.00;46464.03;5093754;28;20180;-90
2024/01/07 04:44:44;;;;;;;102.57;45.00;;;;;;;-141.97;100.00;46166.22;5099124;28;20215;-89
2024/01/07 04:47:35;;;;;;;119.77;53.67;;;;;;;-141.97;100.00;46204.66;5092297;28;20184;-89
2024/01/07 04:50:01;;;;;;;99.03;45.90;;;;;;;-141.97;100.00;46062.47;5091037;28;20221;-89
2024/01/07 04:52:26;;;;;;;91.10;41.63;;;;;;;-141.97;100.00;46158.53;5090590;28;20646;-89
2024/01/07 04:54:55;;;;;;;92.97;44.33;;;;;;;-141.97;100.00;46175.84;5091864;28;20187;-88
2024/01/07 04:57:21;;;;;;;87.53;41.53;;;;;;;-141.97;100.00;46512.06;5091679;28;21046;-89
2024/01/07 04:59:49;;;;;;;85.40;40.20;;;;;;;-141.97;100.00;46467.88;5092064;28;20259;-88
2024/01/07 05:02:14;;;;;;;85.87;40.93;;;;;;;-141.97;100.00;46560.13;5091066;28;20168;-88
2024/01/07 05:04:40;;;;;;;115.97;52.17;;;;;;;-141.97;100.00;46573.56;5090533;28;20669;-89
2024/01/07 05:07:05;;;;;;;106.47;48.30;;;;;;;-141.97;100.00;45926.06;5090510;28;20160;-88
2024/01/07 05:09:32;;;;;;;91.67;42.53;;;;;;;-141.97;100.00;46492.88;5091524;28;20664;-88
2024/01/07 05:11:58;;;;;;;185.37;80.70;;;;;;;-141.97;100.00;46504.38;5091754;28;20164;-88
2024/01/07 05:14:23;;;;;;;100.17;46.10;;;;;;;-141.97;100.00;46525.53;5090034;28;20214;-89
2024/01/07 05:16:49;;;;;;;96.23;43.47;;;;;;;-141.97;100.00;46087.47;5091279;28;20156;-90
2024/01/07 05:19:24;;;;;;;91.77;42.30;;;;;;;-141.97;100.00;46187.38;5093772;28;20168;-89
2024/01/07 05:21:49;;;;;;;90.80;41.73;;;;;;;-141.97;100.00;46448.66;5094858;28;20246;-91
2024/01/07 05:24:15;;;;;;;87.93;40.53;;;;;;;-141.97;100.00;46590.84;5091672;28;20237;-90
2024/01/07 05:26:44;;;;;;;88.87;41.10;;;;;;;-141.97;100.00;46177.75;5091399;28;20199;-90
2024/01/07 05:29:11;;;;;;;84.93;38.70;;;;;;;-141.97;100.00;46001.00;5093673;28;20169;-91
2024/01/07 05:31:36;;;;;;;88.30;40.83;;;;;;;-141.97;100.00;45964.50;5094600;28;20191;-90
2024/01/07 05:34:02;;;;;;;88.80;37.77;;;;;;;-141.97;100.00;46544.75;5104230;28;20190;-90
2024/01/07 05:36:27;;;;;;;88.60;40.73;;;;;;;-141.97;100.00;45866.53;5103367;28;20641;-90
2024/01/07 05:38:53;;;;;;;91.10;42.43;;;;;;;-141.97;100.00;46041.34;5097750;28;20592;-91
2024/01/07 05:41:18;;;;;;;108.50;49.33;;;;;;;-141.97;100.00;46001.00;5097366;28;20302;-89
2024/01/07 05:43:44;;;;;;;164.13;64.83;;;;;;;-141.97;100.00;45862.69;5099064;28;20168;-89
2024/01/07 05:46:11;;;;;;;260.80;115.40;;;;;;;-141.97;100.00;46020.22;5097110;28;20223;-88
2024/01/07 05:48:50;;;;;;;212.33;91.70;;;;;;;-141.97;100.00;46133.56;5096184;28;20203;-91
2024/01/07 05:51:16;;;;;;;252.47;114.87;;;;;;;-141.97;100.00;46139.34;5101948;28;20168;-88
2024/01/07 05:53:44;;;;;;;257.87;115.87;;;;;;;-141.97;100.00;46027.91;5095410;28;20222;-89
2024/01/07 05:56:10;;;;;;;227.37;103.47;;;;;;;-141.97;100.00;46458.28;5093973;28;20323;-91
2024/01/07 05:58:36;;;;;;;182.30;83.87;;;;;;;-141.97;100.00;45999.09;5098217;28;20572;-90
2024/01/07 06:01:01;;;;;;;142.60;65.60;;;;;;;-141.97;100.00;46654.28;5099517;28;20176;-90
2024/01/07 06:03:27;;;;;;;222.67;91.87;;;;;;;-141.97;100.00;46220.03;5098613;28;20172;-90
2024/01/07 06:05:52;;;;;;;156.10;68.13;;;;;;;-141.97;100.00;46638.91;5090710;28;20203;-90
2024/01/07 06:08:18;;;;;;;188.50;88.40;;;;;;;-141.97;100.00;46350.69;5097206;28;20263;-88
2024/01/07 06:10:43;;;;;;;201.67;92.53;;;;;;;-141.97;100.00;46070.16;5098473;28;20626;-89
2024/01/07 06:13:09;;;;;;;283.20;125.63;;;;;;;-141.97;100.00;46016.38;5090851;28;20207;-90
2024/01/07 06:15:34;;;;;;;271.27;122.97;;;;;;;-141.97;100.00;46108.59;5092598;28;20172;-90
2024/01/07 06:17:59;;;;;;;294.00;132.93;;;;;;;-141.97;100.00;46385.25;5093271;28;20156;-89
2024/01/07 06:20:25;;;;;;;326.73;141.23;;;;;;;-141.97;100.00;45993.31;5092749;28;20160;-88
2024/01/07 06:22:50;;;;;;;258.53;114.57;;;;;;;-141.97;100.00;46010.63;5105353;28;20175;-89
2024/01/07 06:25:16;;;;;;;324.13;139.30;;;;;;;-141.97;100.00;45985.63;5093949;28;20222;-90
2024/01/07 06:27:42;;;;;;;384.50;181.43;;;;;;;-141.97;100.00;46175.84;5091741;28;20178;-87
2024/01/07 06:30:08;;;;;;;365.93;160.07;;;;;;;-141.97;100.00;46546.66;5091144;28;20164;-87
2024/01/07 06:32:34;;;;;;;325.27;145.20;;;;;;;-141.97;100.00;46206.56;5091495;28;20168;-88
2024/01/07 06:35:00;;;;;;;293.60;131.07;;;;;;;-141.97;100.00;46427.53;5091140;28;20174;-88
2024/01/07 06:37:28;;;;;;;277.50;125.43;;;;;;;-141.97;100.00;46367.97;5091208;28;20151;-87
2024/01/07 06:39:54;;;;;;;254.77;117.67;;;;;;;-141.97;100.00;46154.69;5090922;28;20242;-87
2024/01/07 06:42:19;;;;;;;238.43;108.50;;;;;;;-141.97;100.00;46122.03;5089435;28;20191;-86
2024/01/07 06:44:45;;;;;;;267.73;130.33;;;;;;;-141.97;100.00;46310.31;5088782;28;20764;-87
2024/01/07 06:47:10;;;;;;;273.67;117.67;;;;;;;-141.97;100.00;46139.34;5088927;28;20176;-87
2024/01/07 06:49:36;;;;;;;211.10;90.40;;;;;;;-141.97;100.00;46064.41;5103903;28;20172;-86
2024/01/07 06:52:02;;;;;;;196.13;80.43;;;;;;;-141.97;100.00;46592.78;5101198;28;20172;-86
2024/01/07 06:54:27;;;;;;;210.33;89.67;;;;;;;-141.97;100.00;46492.88;5097336;28;20167;-87
2024/01/07 06:56:53;;;;;;;128.03;58.57;;;;;;;-141.97;100.00;46373.72;5088854;28;20645;-87
2024/01/07 06:59:18;;;;;;;118.83;51.93;;;;;;;-141.97;100.00;46496.72;5089781;28;20180;-86
2024/01/07 07:01:43;;;;;;;179.67;77.83;;;;;;;-141.97;100.00;46271.91;5090692;28;20624;-88
2024/01/07 07:04:09;;;;;;;160.53;73.27;;;;;;;-141.97;100.00;46496.72;5094941;28;20183;-86
2024/01/07 07:06:34;;;;;;;200.77;90.40;;;;;;;-141.97;100.00;46156.63;5096187;28;20286;-89
2024/01/07 07:09:14;;;;;;;180.37;85.13;;;;;;;-141.97;100.00;46508.22;5095893;28;20180;-91
2024/01/07 07:11:40;;;;;;;219.30;108.53;;;;;;;-141.97;100.00;46135.50;5095110;28;20217;-92
2024/01/07 07:14:06;;;;;;;161.60;75.20;;;;;;;-141.97;100.00;46083.63;5094852;28;20612;-89
2024/01/07 07:16:32;;;;;;;153.93;73.27;;;;;;;-141.97;100.00;45893.41;5094130;28;20195;-89
2024/01/07 07:19:00;;;;;;;147.93;67.67;;;;;;;-141.97;100.00;45962.59;5094779;28;20220;-90
2024/01/07 07:21:27;;;;;;;128.87;61.00;;;;;;;-141.97;100.00;45830.03;5095890;28;20245;-89
2024/01/07 07:23:52;;;;;;;120.97;55.27;;;;;;;-141.97;100.00;45912.63;5093115;28;20527;-88
2024/01/07 07:26:18;;;;;;;123.13;59.00;;;;;;;-141.97;100.00;45926.06;5097649;28;20183;-88
2024/01/07 07:28:43;;;;;;;106.87;50.10;;;;;;;-141.97;100.00;46485.19;5098347;28;20168;-88
2024/01/07 07:31:11;;;;;;;100.63;48.27;;;;;;;-141.97;100.00;46392.94;5094860;28;20221;-89
2024/01/07 07:33:39;;;;;;;104.57;49.27;;;;;;;-141.97;100.00;46642.75;5094262;28;20202;-88
2024/01/07 07:36:04;;;;;;;92.27;42.47;;;;;;;-141.97;100.00;45803.13;5096340;28;20161;-90
2024/01/07 07:38:30;;;;;;;141.87;67.57;;;;;;;-141.97;100.00;45901.09;5094036;28;20164;-89
2024/01/07 07:40:55;;;;;;;162.80;73.63;;;;;;;-141.97;100.00;46172.00;5094052;28;20164;-88
2024/01/07 07:43:21;;;;;;;320.33;130.23;;;;;;;-141.97;100.00;46362.22;5094953;28;20164;-90
2024/01/07 07:45:47;;;;;;;251.37;104.37;;;;;;;-141.97;100.00;46122.03;5096848;28;20318;-88
2024/01/07 07:48:13;;;;;;;166.27;71.90;;;;;;;-141.97;100.00;45914.56;5097777;28;20236;-90
2024/01/07 07:50:40;;;;;;;187.17;79.50;;;;;;;-141.97;100.00;46108.59;5094069;28;20229;-87
2024/01/07 07:53:05;;;;;;;101.43;47.77;;;;;;;-141.97;100.00;46070.16;5095157;28;20618;-88
2024/01/07 07:55:31;;;;;;;149.70;69.60;;;;;;;-141.97;100.00;45885.72;5091375;28;20211;-88
2024/01/07 07:57:57;;;;;;;160.90;72.37;;;;;;;-141.97;100.00;45939.53;5091793;28;20541;-89
2024/01/07 08:00:23;;;;;;;97.70;48.10;;;;;;;-141.97;100.00;45872.28;5093246;28;20213;-88
2024/01/07 08:02:51;;;;;;;146.10;63.40;;;;;;;-141.97;100.00;46056.72;5093022;28;20249;-89
2024/01/07 08:05:19;;;;;;;327.50;185.80;;;;;;;-141.97;100.00;46360.28;5095897;28;20578;-88
2024/01/07 08:07:47;;;;;;;330.93;183.30;;;;;;;-141.97;100.00;46160.47;5107502;28;20163;-88
2024/01/07 08:10:13;;;;;;;236.17;128.10;;;;;;;-141.97;100.00;46099.00;5101509;28;20251;-89
2024/01/07 08:12:41;;;;;;;182.03;100.30;;;;;;;-141.97;100.00;46485.19;5108493;28;20176;-90
2024/01/07 08:15:10;;;;;;;135.03;62.03;;;;;;;-141.97;100.00;46043.28;5105394;28;20772;-88
2024/01/07 08:17:35;;;;;;;122.93;57.77;;;;;;;-141.97;100.00;46429.47;5098879;28;20239;-88
2024/01/07 08:20:01;;;;;;;100.63;46.70;;;;;;;-141.97;100.00;46496.72;5104227;28;20167;-90
2024/01/07 08:22:42;;;;;;;88.23;44.87;;;;;;;-141.97;100.00;46093.22;5103732;28;20168;-88
2024/01/07 08:25:15;;;;;;;144.07;66.53;;;;;;;-141.97;100.00;46116.28;5099247;28;20275;-91
2024/01/07 08:27:56;;;;;;;84.10;43.13;;;;;;;-141.97;100.00;46515.91;5099154;28;20395;-90
2024/01/07 08:34:17;;;;;;;;;;;;;;;;;;;;;
2024/01/07 08:37:16;;;;;;;110.63;47.27;;;;;;;-141.97;100.00;46112.44;4986873;28;20303;-89
2024/01/07 08:39:42;;;;;;;93.13;43.10;;;;;;;-141.97;100.00;46027.91;4931016;29;20315;-88
2024/01/07 08:42:08;;;;;;;88.03;42.33;;;;;;;-141.97;100.00;46373.72;4932249;29;20213;-88
2024/01/07 08:44:34;;;;;;;62.47;33.90;;;;;;;-141.97;100.00;46072.09;4932017;29;20381;-89
2024/01/07 08:47:00;;;;;;;89.30;45.90;;;;;;;-141.97;100.00;45866.53;4932516;29;20230;-87
2024/01/07 08:49:27;;;;;;;94.43;46.10;;;;;;;-141.97;100.00;46427.53;4927670;29;20173;-89
2024/01/07 08:51:55;;;;;;;64.43;34.37;;;;;;;-141.97;100.00;45835.78;4913649;29;20186;-92
2024/01/07 08:54:21;;;;;;;112.27;53.87;;;;;;;-141.97;100.00;46293.03;4898725;29;20614;-88
2024/01/07 08:56:46;;;;;;;88.17;38.27;;;;;;;-141.97;100.00;45897.25;4914756;29;20209;-88
2024/01/07 08:59:11;;;;;;;57.40;30.33;;;;;;;-141.97;100.00;45791.59;4897617;29;20205;-87
2024/01/07 09:01:37;;;;;;;64.37;31.27;;;;;;;-141.97;100.00;45851.16;4913559;29;20186;-91
2024/01/07 09:04:34;;;;;;;44.70;25.53;;;;;;;-141.97;100.00;46300.72;4919253;29;20724;-86
2024/01/07 09:07:00;;;;;;;42.90;24.87;;;;;;;-141.97;100.00;45753.19;4933122;29;20221;-86
2024/01/07 09:09:26;;;;;;;227.93;111.97;;;;;;;-141.97;100.00;46300.72;4938273;29;20236;-88
2024/01/07 09:12:06;;;;;;;;;;;;;;;;;;;;;
2024/01/07 09:14:32;;;;;;;58.90;31.93;;;;;;;-141.97;100.00;45954.91;4995457;28;20281;-90
2024/01/07 09:16:58;;;;;;;49.07;27.10;;;;;;;-141.97;100.00;45878.06;5055026;28;20627;-86
2024/01/07 09:19:23;;;;;;;38.97;21.73;;;;;;;-141.97;100.00;46285.34;5086274;28;20218;-87
2024/01/07 09:21:49;;;;;;;35.83;21.93;;;;;;;-141.97;100.00;45881.91;5092462;28;20174;-87
2024/01/07 09:24:14;;;;;;;44.07;24.93;;;;;;;-141.97;100.00;46400.63;5093443;28;20164;-88
2024/01/07 09:26:40;;;;;;;51.73;29.10;;;;;;;-141.97;100.00;45853.06;5092462;28;20191;-88
2024/01/07 09:29:05;;;;;;;49.87;29.57;;;;;;;-141.97;100.00;46289.19;5091366;28;20306;-87
2024/01/07 09:31:31;;;;;;;58.47;32.30;;;;;;;-141.97;100.00;46235.41;5098253;28;20231;-87
2024/01/07 09:33:56;;;;;;;102.47;43.30;;;;;;;-141.97;100.00;45774.31;5095208;28;20164;-86
2024/01/07 09:36:21;;;;;;;40.17;24.13;;;;;;;-141.97;100.00;45697.47;5096841;28;20255;-88
2024/01/07 09:38:47;;;;;;;37.60;19.53;;;;;;;-141.97;100.00;45970.25;5093169;28;20175;-88
2024/01/07 09:41:13;;;;;;;37.20;21.93;;;;;;;-141.97;100.00;46001.00;5094826;28;20250;-88
2024/01/07 09:43:47;;;;;;;47.20;28.17;;;;;;;-141.97;100.00;46421.78;5100577;28;20210;-89
2024/01/07 09:46:27;;;;;;;86.07;45.47;;;;;;;-141.97;100.00;46431.38;5098705;28;20715;-87
2024/01/07 09:48:53;;;;;;;51.43;32.37;;;;;;;-141.97;100.00;45872.28;5103540;28;20203;-88
2024/01/07 09:51:22;;;;;;;54.50;31.17;;;;;;;-141.97;100.00;45812.72;5082833;28;20279;-88
2024/01/07 09:53:49;;;;;;;51.40;30.50;;;;;;;-141.97;100.00;45816.56;5097340;28;20259;-87
2024/01/07 09:56:25;;;;;;;38.93;23.07;;;;;;;-141.97;100.00;46285.34;5073447;28;20260;-86
2024/01/07 09:58:51;;;;;;;30.97;19.17;;;;;;;-141.97;100.00;46279.59;5088822;28;20152;-87
2024/01/07 10:01:19;;;;;;;44.90;27.17;;;;;;;-141.97;100.00;46367.97;5088712;28;20287;-87
2024/01/07 10:03:45;;;;;;;48.30;27.40;;;;;;;-141.97;100.00;46200.81;5090338;28;20156;-87
2024/01/07 10:06:12;;;;;;;185.93;75.57;;;;;;;-141.97;100.00;46004.84;5088334;28;20659;-88
2024/01/07 10:08:38;;;;;;;34.00;18.97;;;;;;;-141.97;100.00;45947.22;5088430;28;20260;-87
2024/01/07 10:11:04;;;;;;;33.23;18.47;;;;;;;-141.97;100.00;46227.72;5072567;28;20172;-87
2024/01/07 10:13:31;;;;;;;39.63;24.07;;;;;;;-141.97;100.00;46391.03;5089430;28;20612;-88
2024/01/07 10:15:56;;;;;;;29.90;18.97;;;;;;;-141.97;100.00;46293.03;5089250;28;20156;-89
2024/01/07 10:18:22;;;;;;;18.53;10.50;;;;;;;-141.97;100.00;45951.06;5106505;28;20198;-88
2024/01/07 10:20:48;;;;;;;10.27;6.33;;;;;;;-141.97;100.00;45755.09;5091452;28;20178;-87
2024/01/07 10:23:26;;;;;;;22.70;12.00;;;;;;;-141.97;100.00;46035.59;5088974;28;20217;-89
2024/01/07 10:25:55;;;;;;;12.77;6.70;;;;;;;-141.97;100.00;45676.34;5089218;28;20184;-87
2024/01/07 10:28:21;;;;;;;19.87;10.57;;;;;;;-141.97;100.00;46218.09;5090136;28;20311;-89
2024/01/07 10:30:50;;;;;;;18.57;9.97;;;;;;;-141.97;100.00;45805.06;5089006;28;20187;-86
2024/01/07 10:33:17;;;;;;;20.13;12.10;;;;;;;-141.97;100.00;45891.50;5090752;28;20528;-87
2024/01/07 10:35:51;;;;;;;25.13;12.30;;;;;;;-141.97;100.00;45879.97;5089050;28;20179;-88
2024/01/07 10:38:40;;;;;;;15.43;7.77;;;;;;;-141.97;100.00;45772.41;5092817;28;20153;-89
2024/01/07 10:41:11;;;;;;;13.27;7.83;;;;;;;-141.97;100.00;46319.94;5089455;28;20801;-87
2024/01/07 10:43:39;;;;;;;17.73;11.33;;;;;;;-141.97;100.00;45878.06;5086153;28;20751;-89
2024/01/07 10:46:04;;;;;;;11.00;5.43;;;;;;;-141.97;100.00;45791.59;5087064;28;20321;-90
2024/01/07 10:48:37;;;;;;;15.73;8.97;;;;;;;-141.97;100.00;46354.53;5087993;28;20589;-88
2024/01/07 10:51:02;;;;;;;8.53;4.07;;;;;;;-141.97;100.00;46193.13;5088124;28;20648;-88
2024/01/07 10:53:55;;;;;;;68.93;24.97;;;;;;;-141.97;100.00;46060.56;5088223;28;20174;-88
2024/01/07 10:56:24;;;;;;;7.30;3.40;;;;;;;-141.97;100.00;45860.75;5088921;28;20263;-89
2024/01/07 10:58:53;;;;;;;4.33;2.40;;;;;;;-141.97;100.00;45701.31;5086932;28;20764;-88